Terminal Aerodrome Forecast
Issued by NWS

Home | Current Version | Previous Version | Text Only | Print | Product List | Glossary On
Versions: 1 2 3 4 5 6 7 8 9 10 11 12 13 14 15 16 17 18 19 20 21 22 23 24 25 26 27 28 29 30 31
000
FTUS41 KOKX 300236 AAA
TAFGON
TAF AMD
KGON 300236Z 3003/3024 13005KT 1/2SM FG OVC002
      TEMPO 3005/3008 1SM -SHRA BR
     FM300800 15004KT 1SM -SHRA BR FEW002 OVC004
     FM301000 18005KT 1 1/2SM SHRA BR SCT002 OVC004
      TEMPO 3012/3016 1SM +SHRA BR
     FM301800 20008KT 3SM SHRA BR SCT004 OVC008=

USA.gov is the U.S. government's official web portal to all federal, state and local government web resources and services.